Time;durP1;ratioP1;P1;durP2;ratioP2;P2;SDS_P1;SDS_P2;PMS_P1;PMS_P2;Temp;Humidity;BMP_temperature;BMP_pressure;BME280_temperature;BME280_humidity;BME280_pressure;Samples;Min_cycle;Max_cycle;Signal;HPM_P1;HPM_P2
2022/04/26 03:37:24;;;;;;;21.27;14.20;;;;;;;13.69;66.90;98823.34;5069722;28;20143;-58
2022/04/26 03:39:50;;;;;;;18.17;13.88;;;;;;;13.71;66.84;98828.53;5069802;28;20108;-61
2022/04/26 03:42:15;;;;;;;18.17;13.50;;;;;;;13.64;67.19;98821.13;5069803;28;20050;-60
2022/04/26 03:44:42;;;;;;;16.63;13.10;;;;;;;13.71;67.10;98831.22;5069612;28;20453;-57
2022/04/26 03:47:08;;;;;;;18.70;13.35;;;;;;;13.72;66.45;98833.75;5069619;28;20028;-60
2022/04/26 03:49:34;;;;;;;14.63;12.85;;;;;;;13.73;66.53;98830.06;5069855;28;20059;-59
2022/04/26 03:52:00;;;;;;;17.98;12.55;;;;;;;13.75;66.25;98837.97;5069818;28;20021;-59
2022/04/26 03:54:25;;;;;;;14.90;12.98;;;;;;;13.78;65.99;98834.94;5069532;28;20479;-58
2022/04/26 03:56:51;;;;;;;22.30;13.15;;;;;;;13.64;65.98;98809.56;5069942;28;20025;-55
2022/04/26 03:59:18;;;;;;;14.90;12.60;;;;;;;13.88;65.65;98838.28;5069701;28;20025;-57
2022/04/26 04:01:44;;;;;;;16.20;12.65;;;;;;;13.84;65.36;98815.41;5069372;28;20028;-59
2022/04/26 04:04:10;;;;;;;16.63;12.38;;;;;;;14.10;64.72;98838.59;5051616;28;20064;-59
2022/04/26 04:06:35;;;;;;;18.63;12.45;;;;;;;14.24;63.85;98841.59;5068950;28;20393;-61
2022/04/26 04:09:01;;;;;;;20.95;13.07;;;;;;;14.53;63.13;98822.13;5069380;28;20472;-61
2022/04/26 04:11:27;;;;;;;22.27;12.52;;;;;;;15.55;60.45;98833.03;5069576;28;20082;-59
2022/04/26 04:13:52;;;;;;;15.50;11.57;;;;;;;16.85;56.67;98833.75;5069510;28;20032;-56
2022/04/26 04:16:18;;;;;;;15.38;11.30;;;;;;;17.83;52.91;98835.16;5069445;28;20486;-58
2022/04/26 04:21:28;;;;;;;14.82;11.15;;;;;;;18.25;51.68;98834.47;5072876;28;20056;-58
2022/04/26 04:23:53;;;;;;;15.20;11.23;;;;;;;18.15;51.32;98805.88;5072804;28;20044;-55
2022/04/26 04:26:18;;;;;;;13.10;10.35;;;;;;;18.46;50.44;98841.69;5055055;28;20547;-58
2022/04/26 04:28:44;;;;;;;13.52;10.27;;;;;;;18.45;50.28;98831.91;5055291;28;20520;-59
2022/04/26 04:31:10;;;;;;;12.05;10.32;;;;;;;18.41;49.91;98836.03;5072721;28;20034;-59
2022/04/26 04:33:39;;;;;;;13.43;10.43;;;;;;;18.54;50.63;98846.94;5072545;28;20032;-58
2022/04/26 04:36:05;;;;;;;12.50;10.10;;;;;;;18.68;49.28;98842.44;5054695;28;20028;-59
2022/04/26 04:38:31;;;;;;;11.27;10.10;;;;;;;19.03;48.25;98841.56;5072801;28;20029;-56
2022/04/26 04:40:57;;;;;;;10.30;9.30;;;;;;;19.79;46.18;98836.91;5072716;28;20033;-62
2022/04/26 04:43:23;;;;;;;11.18;8.50;;;;;;;20.71;43.61;98844.31;5072404;28;20094;-58
2022/04/26 04:45:48;;;;;;;10.20;8.15;;;;;;;21.25;42.23;98838.69;5072778;28;20029;-58
2022/04/26 04:48:14;;;;;;;9.82;8.25;;;;;;;23.12;38.02;98844.53;5072821;28;20036;-54
2022/04/26 04:50:40;;;;;;;8.90;7.63;;;;;;;25.54;33.71;98826.53;5072457;28;20032;-57
2022/04/26 04:53:05;;;;;;;9.35;8.45;;;;;;;27.76;29.62;98825.09;5072430;28;20088;-58
2022/04/26 04:55:32;;;;;;;9.48;8.60;;;;;;;29.08;27.31;98830.03;5072084;28;20024;-58
2022/04/26 04:57:57;;;;;;;8.20;7.40;;;;;;;30.57;24.94;98819.28;5069438;28;20032;-59
2022/04/26 05:00:23;;;;;;;9.05;7.80;;;;;;;31.48;23.42;98813.63;5072561;28;20032;-60
2022/04/26 05:02:48;;;;;;;8.98;8.18;;;;;;;32.00;22.79;98813.25;5072264;28;20119;-61
2022/04/26 05:05:14;;;;;;;7.88;7.18;;;;;;;33.00;20.97;98813.81;5072292;28;20909;-60
2022/04/26 05:07:39;;;;;;;7.85;7.18;;;;;;;33.30;20.54;98812.56;5054435;28;20111;-63
2022/04/26 05:10:06;;;;;;;7.05;6.45;;;;;;;33.21;20.85;98792.16;5054349;28;20123;-61
2022/04/26 05:12:32;;;;;;;7.18;6.47;;;;;;;34.14;19.53;98809.31;5054270;28;20456;-59
2022/04/26 05:14:58;;;;;;;7.28;6.57;;;;;;;35.29;18.08;98803.91;5072238;28;20032;-59
2022/04/26 05:17:23;;;;;;;7.43;6.75;;;;;;;36.24;16.84;98794.91;5072576;28;20120;-58
2022/04/26 05:19:49;;;;;;;7.28;6.68;;;;;;;36.91;16.55;98796.59;5072484;28;20111;-60
2022/04/26 05:22:14;;;;;;;7.80;7.00;;;;;;;37.58;15.36;98799.28;5054164;28;20824;-59
2022/04/26 05:24:53;;;;;;;6.75;6.15;;;;;;;38.13;15.04;98802.50;5071703;28;20040;-59
2022/04/26 05:27:31;;;;;;;6.75;6.10;;;;;;;38.73;14.57;98799.75;5072142;28;20524;-61
2022/04/26 05:29:57;;;;;;;7.00;6.10;;;;;;;39.09;13.85;98793.97;5071743;28;20028;-60
2022/04/26 05:32:28;;;;;;;6.68;6.18;;;;;;;39.55;13.67;98803.31;5072153;28;20365;-60
2022/04/26 05:34:58;;;;;;;8.35;6.70;;;;;;;39.71;14.24;98797.06;5072165;28;20020;-61
2022/04/26 05:37:25;;;;;;;7.93;6.78;;;;;;;39.69;13.28;98783.41;5072197;28;20044;-60
2022/04/26 05:39:51;;;;;;;6.75;6.20;;;;;;;40.18;12.86;98787.50;5071726;28;20330;-61
2022/04/26 05:42:16;;;;;;;6.40;5.88;;;;;;;40.79;12.15;98783.09;5071476;28;20028;-61
2022/04/26 05:44:42;;;;;;;6.72;6.13;;;;;;;41.11;11.92;98788.06;5072001;28;20330;-62
2022/04/26 05:47:11;;;;;;;6.60;6.10;;;;;;;41.70;12.03;98799.81;5071409;28;20033;-63
2022/04/26 05:49:36;;;;;;;6.22;5.57;;;;;;;41.41;11.94;98770.91;5071375;28;20029;-63
2022/04/26 05:52:03;;;;;;;5.80;5.40;;;;;;;41.72;11.05;98794.66;5071443;28;20465;-63
2022/04/26 05:54:28;;;;;;;6.40;6.00;;;;;;;41.55;11.20;98793.78;5071194;28;20111;-64
2022/04/26 05:56:54;;;;;;;6.70;6.20;;;;;;;41.45;11.35;98788.66;5071331;28;20120;-63
2022/04/26 05:59:20;;;;;;;9.35;6.53;;;;;;;42.29;10.67;98786.13;5071650;28;20032;-62
2022/04/26 06:01:46;;;;;;;7.18;6.60;;;;;;;42.99;10.60;98776.16;5053667;28;20086;-63
2022/04/26 06:04:12;;;;;;;7.22;6.60;;;;;;;42.55;10.95;98788.38;5036776;28;20464;-62
2022/04/26 06:06:38;;;;;;;7.90;6.70;;;;;;;41.50;11.39;98790.41;5071519;28;20131;-63
2022/04/26 06:09:04;;;;;;;7.75;6.50;;;;;;;42.16;11.22;98794.63;5071345;28;20111;-63
2022/04/26 06:11:30;;;;;;;7.35;6.65;;;;;;;42.94;10.78;98790.53;5071159;28;20485;-63
2022/04/26 06:13:56;;;;;;;7.55;6.65;;;;;;;42.49;10.83;98780.59;5071754;28;20039;-64
2022/04/26 06:16:21;;;;;;;7.20;6.50;;;;;;;41.09;11.94;98793.22;5071175;28;20032;-63
2022/04/26 06:18:47;;;;;;;6.93;6.25;;;;;;;38.84;12.95;98774.22;5070995;28;20119;-63
2022/04/26 06:21:13;;;;;;;7.20;6.05;;;;;;;38.68;13.40;98780.38;5070987;28;20102;-63
2022/04/26 06:23:39;;;;;;;6.80;6.15;;;;;;;40.28;12.33;98797.50;5053239;28;20377;-63
2022/04/26 06:26:05;;;;;;;6.60;6.05;;;;;;;42.07;10.65;98788.41;5070869;28;20112;-64
2022/04/26 06:28:31;;;;;;;5.05;4.55;;;;;;;43.28;9.69;98799.28;5053341;28;20048;-64
2022/04/26 06:30:57;;;;;;;5.72;5.10;;;;;;;44.13;8.64;98797.75;5071540;28;20481;-64
2022/04/26 06:33:22;;;;;;;5.65;5.10;;;;;;;44.81;8.15;98813.34;5053429;28;20093;-63
2022/04/26 06:35:48;;;;;;;4.88;4.47;;;;;;;44.92;7.91;98805.88;5070751;28;20093;-63
2022/04/26 06:38:16;;;;;;;5.03;4.63;;;;;;;45.08;8.31;98810.50;5070705;28;20028;-63
2022/04/26 06:40:41;;;;;;;5.20;4.72;;;;;;;45.27;8.20;98804.72;5070708;28;20832;-63
2022/04/26 06:43:07;;;;;;;6.15;5.47;;;;;;;45.35;7.74;98768.13;5070372;28;20063;-62
2022/04/26 06:45:33;;;;;;;7.28;5.57;;;;;;;45.98;8.02;98793.81;5070589;28;20124;-62
2022/04/26 06:47:59;;;;;;;7.63;4.95;;;;;;;46.49;7.31;98802.75;5052685;28;20029;-62
2022/04/26 06:50:25;;;;;;;5.68;5.18;;;;;;;47.07;6.97;98806.00;5070699;28;20071;-64
2022/04/26 06:52:50;;;;;;;6.60;5.30;;;;;;;46.99;7.33;98805.94;5070908;28;20421;-62
2022/04/26 06:55:16;;;;;;;6.85;5.30;;;;;;;47.23;6.73;98808.50;5070645;28;20026;-62
2022/04/26 06:57:41;;;;;;;5.90;5.40;;;;;;;47.03;6.81;98793.81;5066684;28;20058;-61
2022/04/26 07:00:09;;;;;;;6.85;4.53;;;;;;;45.70;7.59;98815.75;5067034;28;20028;-61
2022/04/26 07:02:35;;;;;;;5.25;4.82;;;;;;;42.28;9.72;98809.81;5068650;28;20024;-61
2022/04/26 07:05:01;;;;;;;5.13;4.47;;;;;;;40.99;10.41;98803.75;5070358;28;20468;-61
2022/04/26 07:07:26;;;;;;;5.45;4.35;;;;;;;42.36;9.17;98805.97;5069638;28;20491;-59
2022/04/26 07:09:52;;;;;;;4.80;4.43;;;;;;;43.10;9.17;98798.06;5051469;28;20052;-62
2022/04/26 07:12:17;;;;;;;4.88;4.05;;;;;;;44.05;8.37;98807.22;5051019;28;20029;-61
2022/04/26 07:14:43;;;;;;;4.80;4.40;;;;;;;42.51;8.95;98795.13;5068331;28;20079;-60
2022/04/26 07:17:10;;;;;;;4.47;4.10;;;;;;;42.10;9.42;98803.72;5051711;28;20277;-62
2022/04/26 07:19:35;;;;;;;5.30;3.72;;;;;;;43.73;8.34;98801.81;5069355;28;20384;-62
2022/04/26 07:22:03;;;;;;;7.50;4.00;;;;;;;45.52;7.51;98817.56;5070704;28;20041;-60
2022/04/26 07:24:33;;;;;;;5.13;3.40;;;;;;;46.70;6.87;98817.09;5070150;28;20044;-58
2022/04/26 07:26:59;;;;;;;6.57;3.10;;;;;;;47.05;6.48;98820.56;5068232;28;20028;-60
2022/04/26 07:29:24;;;;;;;3.92;3.20;;;;;;;45.64;7.15;98810.81;5051231;28;20353;-61
2022/04/26 07:31:50;;;;;;;4.13;3.72;;;;;;;44.66;7.56;98821.59;5068336;28;20032;-59
2022/04/26 07:34:21;;;;;;;3.45;3.15;;;;;;;44.80;7.48;98791.94;5051025;28;20460;-59
2022/04/26 07:36:49;;;;;;;3.65;2.90;;;;;;;45.73;7.07;98822.66;5052774;28;20029;-55
2022/04/26 07:39:17;;;;;;;4.50;3.05;;;;;;;45.89;6.72;98810.31;5049459;28;20040;-60
2022/04/26 07:41:49;;;;;;;3.80;3.42;;;;;;;46.72;6.35;98805.38;5049179;28;20107;-61
2022/04/26 07:44:15;;;;;;;3.28;2.92;;;;;;;47.86;5.76;98799.81;5066278;28;20051;-62
2022/04/26 07:46:43;;;;;;;4.60;3.03;;;;;;;48.53;5.53;98808.00;5049175;28;20043;-60
2022/04/26 07:49:10;;;;;;;2.90;2.70;;;;;;;45.55;6.94;98794.97;5048978;28;20333;-60
2022/04/26 07:51:36;;;;;;;4.70;2.80;;;;;;;41.90;8.95;98810.00;5063257;28;20028;-61
2022/04/26 07:54:01;;;;;;;3.28;2.70;;;;;;;38.61;10.57;98791.28;5068952;28;20051;-60
2022/04/26 07:56:27;;;;;;;3.63;2.88;;;;;;;35.91;13.16;98807.16;5049953;28;20036;-60
2022/04/26 07:58:53;;;;;;;4.25;2.88;;;;;;;34.96;13.90;98792.09;5066269;28;20028;-57
2022/04/26 08:01:19;;;;;;;6.05;3.30;;;;;;;35.42;13.69;98793.00;5065044;28;20033;-62
2022/04/26 08:03:44;;;;;;;5.05;3.05;;;;;;;34.82;14.07;98792.13;5066506;28;20306;-63
2022/04/26 08:06:10;;;;;;;3.08;2.78;;;;;;;34.32;15.22;98802.00;5072208;28;20411;-65
2022/04/26 08:08:35;;;;;;;4.90;2.70;;;;;;;33.05;15.98;98791.56;5067109;28;20044;-62
2022/04/26 08:11:01;;;;;;;5.22;2.72;;;;;;;31.21;17.44;98812.13;5072349;28;20071;-64
2022/04/26 08:13:27;;;;;;;2.92;2.33;;;;;;;29.61;18.91;98810.56;5071759;28;20388;-62
2022/04/26 08:15:53;;;;;;;2.85;2.63;;;;;;;28.57;20.15;98794.81;5071624;28;20170;-61
2022/04/26 08:18:18;;;;;;;3.08;2.55;;;;;;;27.92;20.56;98809.56;5064313;28;20510;-61
2022/04/26 08:20:47;;;;;;;3.85;2.70;;;;;;;27.45;21.70;98800.88;5045068;28;20020;-63
2022/04/26 08:23:13;;;;;;;5.15;2.67;;;;;;;26.98;22.21;98801.50;5062638;28;20046;-62
2022/04/26 08:28:24;;;;;;;3.33;2.80;;;;;;;26.20;23.67;98798.56;5059571;28;20855;-62
2022/04/26 08:30:50;;;;;;;4.82;2.70;;;;;;;25.86;23.70;98792.25;5062354;28;20025;-62
2022/04/26 08:33:17;;;;;;;3.65;2.70;;;;;;;25.52;23.60;98782.13;5060243;28;20037;-62
2022/04/26 08:35:42;;;;;;;3.13;2.83;;;;;;;25.44;24.23;98801.69;5062194;28;20029;-63
2022/04/26 08:38:08;;;;;;;3.67;3.10;;;;;;;25.43;24.70;98795.38;5052726;28;20033;-63
2022/04/26 08:40:33;;;;;;;3.58;2.97;;;;;;;25.46;24.20;98799.53;5052578;28;20028;-61
2022/04/26 08:42:59;;;;;;;2.83;2.60;;;;;;;25.12;23.65;98774.84;5055019;28;20111;-62
2022/04/26 08:45:25;;;;;;;3.08;2.88;;;;;;;24.99;24.53;98801.41;5072515;28;20028;-62
2022/04/26 08:53:21;;;;;;;5.53;3.75;;;;;;;24.18;25.98;98803.00;5052373;28;20453;-62
2022/04/26 08:55:49;;;;;;;7.80;3.40;;;;;;;24.17;26.57;98804.06;5057010;28;20484;-64
2022/04/26 08:58:15;;;;;;;8.02;3.65;;;;;;;23.99;27.03;98798.69;5044853;28;20055;-63
2022/04/26 09:01:09;;;;;;;5.30;3.20;;;;;;;24.10;26.33;98788.84;5070322;28;20166;-63
2022/04/26 09:03:55;;;;;;;5.40;3.55;;;;;;;23.72;27.14;98796.41;5072546;28;20039;-63
2022/04/26 09:06:39;;;;;;;5.32;3.22;;;;;;;23.64;27.29;98800.31;5054296;28;20067;-62
2022/04/26 09:09:24;;;;;;;3.90;2.80;;;;;;;23.65;26.58;98797.38;5072803;28;20032;-63
2022/04/26 09:11:58;;;;;;;7.80;4.03;;;;;;;23.60;27.24;98790.94;5071327;28;20384;-65
2022/04/26 09:14:47;;;;;;;3.85;2.85;;;;;;;24.01;25.88;98788.34;5042171;28;20029;-66
2022/04/26 09:17:13;;;;;;;4.93;2.88;;;;;;;23.92;26.35;98794.19;5052272;28;20159;-65
2022/04/26 09:19:47;;;;;;;5.22;2.90;;;;;;;24.11;26.23;98801.44;5052109;28;20033;-65
2022/04/26 09:22:17;;;;;;;5.22;3.55;;;;;;;24.13;25.56;98793.84;5051791;28;20196;-62
2022/04/26 09:25:02;;;;;;;3.83;3.25;;;;;;;23.80;25.86;98790.59;5060282;28;20048;-63
2022/04/26 09:27:32;;;;;;;9.73;4.43;;;;;;;23.29;27.45;98792.88;5041167;28;20067;-61
2022/04/26 09:29:57;;;;;;;7.43;3.33;;;;;;;23.20;27.94;98787.69;5058506;28;20440;-60
2022/04/26 09:32:25;;;;;;;8.30;3.53;;;;;;;23.17;28.82;98793.63;5066359;28;20036;-61
2022/04/26 09:34:51;;;;;;;6.32;4.18;;;;;;;23.05;28.79;98782.66;5051750;28;20040;-63
2022/04/26 09:37:16;;;;;;;5.50;3.90;;;;;;;23.05;28.88;98788.13;5061495;28;20113;-61
2022/04/26 09:40:05;;;;;;;6.47;3.80;;;;;;;23.49;27.58;98796.13;5071433;28;20148;-62
2022/04/26 09:42:33;;;;;;;4.20;3.72;;;;;;;23.35;28.50;98789.22;5071690;28;20029;-64
2022/04/26 09:45:17;;;;;;;4.03;3.60;;;;;;;23.57;27.55;98788.66;5057458;28;20029;-63
2022/04/26 09:47:43;;;;;;;5.28;3.38;;;;;;;23.44;28.35;98786.97;5051330;28;20109;-61
2022/04/26 09:50:11;;;;;;;5.88;3.22;;;;;;;23.51;27.93;98784.97;5051264;28;20029;-62
2022/04/26 09:52:38;;;;;;;7.03;3.22;;;;;;;23.39;27.94;98795.88;5060128;28;20075;-61
2022/04/26 09:55:05;;;;;;;6.28;3.70;;;;;;;23.47;28.06;98791.97;5067481;28;20081;-62
2022/04/26 09:57:35;;;;;;;4.47;3.00;;;;;;;23.61;27.84;98787.13;5071352;28;20093;-59
2022/04/26 10:00:09;;;;;;;4.53;3.65;;;;;;;23.61;27.94;98782.47;5070653;28;20082;-61
2022/04/26 10:02:38;;;;;;;3.50;3.20;;;;;;;23.64;27.19;98787.50;5070610;28;20078;-60
2022/04/26 10:05:05;;;;;;;5.80;3.20;;;;;;;23.72;27.09;98782.75;5071332;28;20032;-61
2022/04/26 10:07:36;;;;;;;6.13;3.00;;;;;;;23.74;27.18;98769.69;5053117;28;20035;-61
2022/04/26 10:10:04;;;;;;;6.07;3.35;;;;;;;23.74;26.37;98792.34;5052543;28;20479;-60
2022/04/26 10:12:31;;;;;;;5.45;3.03;;;;;;;23.69;26.86;98796.88;5049131;28;20028;-63
2022/04/26 10:14:58;;;;;;;8.02;2.90;;;;;;;23.49;26.86;98798.03;5059838;28;20055;-63
2022/04/26 10:17:23;;;;;;;4.63;3.28;;;;;;;23.31;27.26;98794.28;5040282;28;20029;-65
2022/04/26 10:19:49;;;;;;;3.45;3.10;;;;;;;23.13;27.62;98802.50;5042201;28;20468;-63
2022/04/26 10:22:17;;;;;;;5.32;2.85;;;;;;;22.73;28.47;98791.06;5060841;28;20045;-62
2022/04/26 10:25:07;;;;;;;4.57;2.95;;;;;;;22.67;28.18;98811.09;5058667;28;20047;-63
2022/04/26 10:27:33;;;;;;;5.05;2.85;;;;;;;22.07;29.52;98801.63;5059195;28;20041;-62
2022/04/26 10:29:58;;;;;;;4.30;3.00;;;;;;;21.79;29.83;98797.47;5058628;28;20073;-64
2022/04/26 10:32:31;;;;;;;4.15;3.22;;;;;;;21.82;30.26;98816.09;5060683;28;20013;-63
2022/04/26 10:35:26;;;;;;;6.50;3.35;;;;;;;21.64;30.26;98809.53;5063520;28;20103;-63
2022/04/26 10:38:06;;;;;;;3.90;3.40;;;;;;;21.53;30.41;98818.41;5032017;28;20119;-63
2022/04/26 10:41:04;;;;;;;3.90;3.40;;;;;;;21.56;31.13;98814.38;5050607;28;20025;-62
2022/04/26 10:43:29;;;;;;;7.95;3.70;;;;;;;21.53;31.73;98804.78;5049099;28;20056;-63
2022/04/26 10:46:10;;;;;;;7.13;3.80;;;;;;;22.00;30.63;98817.22;5054742;28;20416;-62
2022/04/26 10:48:35;;;;;;;6.32;3.65;;;;;;;22.08;30.86;98806.88;5050501;28;20033;-62
2022/04/26 10:51:35;;;;;;;3.58;3.25;;;;;;;22.50;29.78;98819.03;5050406;28;20025;-63
2022/04/26 10:54:02;;;;;;;5.13;3.28;;;;;;;22.43;29.87;98812.78;5050450;28;20017;-63
2022/04/26 10:56:29;;;;;;;3.88;3.28;;;;;;;22.31;30.32;98812.72;5032673;28;20060;-62
2022/04/26 10:58:55;;;;;;;3.67;3.20;;;;;;;22.20;30.44;98812.41;5050073;28;20029;-63
2022/04/26 11:01:25;;;;;;;5.07;3.20;;;;;;;22.19;30.03;98813.47;5068460;28;20083;-62
2022/04/26 11:03:52;;;;;;;5.70;3.10;;;;;;;21.95;30.74;98809.69;5062845;28;20032;-63
2022/04/26 11:06:41;;;;;;;4.28;2.92;;;;;;;22.10;30.13;98803.09;5050183;28;20033;-62
2022/04/26 11:09:11;;;;;;;4.53;3.38;;;;;;;22.08;30.30;98814.19;5060778;28;20024;-62
2022/04/26 11:12:06;;;;;;;4.00;3.60;;;;;;;22.26;30.00;98818.00;5070412;28;20032;-64
2022/04/26 11:14:31;;;;;;;6.47;3.20;;;;;;;22.02;30.43;98809.66;5044868;28;20044;-63
2022/04/26 11:16:58;;;;;;;4.38;3.28;;;;;;;22.10;29.78;98822.97;5049697;28;20025;-64
2022/04/26 11:19:36;;;;;;;7.03;3.10;;;;;;;22.21;29.79;98829.59;5032133;28;20116;-62
2022/04/26 11:22:06;;;;;;;6.70;3.00;;;;;;;22.12;30.11;98818.13;5052253;28;20061;-63
2022/04/26 11:30:06;;;;;;;4.45;3.00;;;;;;;21.63;30.95;98826.06;5042680;28;20123;-63
2022/04/26 11:32:35;;;;;;;4.80;2.92;;;;;;;21.43;30.98;98815.31;5076819;28;20028;-63
2022/04/26 11:35:01;;;;;;;6.40;3.15;;;;;;;21.22;31.50;98822.78;5076010;28;20028;-62
2022/04/26 11:37:27;;;;;;;5.10;3.33;;;;;;;21.00;31.48;98820.41;5076771;28;20032;-63
2022/04/26 11:39:53;;;;;;;4.55;2.80;;;;;;;20.74;32.02;98804.97;5076846;28;20032;-63
2022/04/26 11:42:20;;;;;;;4.80;3.03;;;;;;;20.60;32.44;98815.06;5076545;28;20024;-63
2022/04/26 11:45:04;;;;;;;4.88;3.30;;;;;;;20.51;32.26;98801.72;5074592;28;20129;-62
2022/04/26 11:47:36;;;;;;;4.97;3.15;;;;;;;20.47;33.15;98818.66;5056392;28;20493;-61
2022/04/26 11:50:14;;;;;;;5.40;3.58;;;;;;;20.21;33.12;98796.75;5056501;28;20469;-58
2022/04/26 11:52:43;;;;;;;5.45;3.45;;;;;;;20.29;33.17;98827.50;5057010;28;20415;-62
2022/04/26 11:55:19;;;;;;;8.13;3.40;;;;;;;20.47;32.83;98824.94;5039141;28;20124;-62
2022/04/26 11:57:46;;;;;;;4.45;3.10;;;;;;;20.44;32.94;98829.97;5055498;28;20025;-59
2022/04/26 12:00:12;;;;;;;4.70;3.25;;;;;;;20.54;32.94;98818.66;5061590;28;20044;-60
2022/04/26 12:02:37;;;;;;;5.93;2.75;;;;;;;20.67;32.45;98805.00;5076937;28;20068;-62
2022/04/26 12:05:04;;;;;;;6.00;3.05;;;;;;;20.80;32.36;98815.03;5076671;28;20086;-61
2022/04/26 12:07:31;;;;;;;6.47;3.45;;;;;;;20.91;31.83;98816.22;5076735;28;20029;-63
2022/04/26 12:09:56;;;;;;;4.47;2.90;;;;;;;21.02;31.70;98809.28;5076796;28;20060;-62
2022/04/26 12:12:22;;;;;;;4.80;2.90;;;;;;;21.00;31.82;98806.78;5076289;28;20056;-63
2022/04/26 12:14:48;;;;;;;4.65;3.22;;;;;;;20.97;31.74;98809.91;5075814;28;20112;-63
2022/04/26 12:17:18;;;;;;;4.28;3.20;;;;;;;21.07;31.60;98809.44;5076298;28;20111;-64
2022/04/26 12:19:50;;;;;;;4.22;3.30;;;;;;;20.68;31.94;98749.56;5076428;28;20029;-63
2022/04/26 12:22:20;;;;;;;5.53;3.30;;;;;;;21.11;32.11;98813.44;5075733;28;20049;-62
2022/04/26 12:24:48;;;;;;;4.78;3.20;;;;;;;21.23;31.56;98817.13;5058218;28;20388;-63
2022/04/26 12:27:16;;;;;;;4.63;3.22;;;;;;;21.17;31.53;98798.09;5076344;28;20040;-61
2022/04/26 12:29:48;;;;;;;9.23;3.30;;;;;;;21.52;31.21;98814.00;5075048;28;20041;-62
2022/04/26 12:32:19;;;;;;;5.30;3.10;;;;;;;21.75;30.86;98798.97;5058834;28;20032;-63
2022/04/26 12:34:50;;;;;;;7.28;3.40;;;;;;;21.81;30.30;98792.63;5047854;28;20036;-62
2022/04/26 12:37:26;;;;;;;7.45;2.70;;;;;;;21.93;30.44;98806.38;5065265;28;20039;-61
2022/04/26 12:40:05;;;;;;;3.80;2.80;;;;;;;21.86;30.20;98814.59;5063769;28;20067;-63
2022/04/26 12:42:40;;;;;;;4.53;2.75;;;;;;;21.62;30.38;98811.59;5061135;28;20024;-63
2022/04/26 12:45:21;;;;;;;3.85;2.90;;;;;;;21.61;30.45;98806.41;5039760;28;20108;-63
2022/04/26 12:50:56;;;;;;;4.53;3.03;;;;;;;20.56;32.03;98819.28;5059813;28;20079;-64
2022/04/26 12:53:28;;;;;;;4.70;2.70;;;;;;;20.27;32.32;98816.84;5062312;28;20052;-63
2022/04/26 12:55:54;;;;;;;3.78;2.72;;;;;;;19.86;33.38;98815.16;5061470;28;20108;-63
2022/04/26 12:58:37;;;;;;;4.00;2.85;;;;;;;19.94;33.11;98815.81;5062057;28;20434;-62
2022/04/26 13:01:03;;;;;;;4.20;2.88;;;;;;;19.74;32.80;98780.50;5061253;28;20856;-63
2022/04/26 13:03:29;;;;;;;5.22;2.55;;;;;;;20.13;31.99;98807.88;5042311;28;20052;-63
2022/04/26 13:06:24;;;;;;;5.40;2.33;;;;;;;20.49;31.50;98792.91;5061089;28;20067;-61
2022/04/26 13:08:51;;;;;;;4.63;2.55;;;;;;;20.31;31.66;98799.03;5046268;28;20116;-63
2022/04/26 13:11:18;;;;;;;6.13;3.00;;;;;;;20.37;31.18;98794.66;5061629;28;20375;-63
2022/04/26 13:13:46;;;;;;;2.97;2.50;;;;;;;20.55;30.63;98798.56;5060086;28;20036;-61
2022/04/26 13:16:11;;;;;;;3.35;2.28;;;;;;;20.51;30.72;98793.56;5060833;28;20025;-63
2022/04/26 13:18:38;;;;;;;7.28;2.80;;;;;;;20.49;31.04;98798.34;5028744;28;20116;-63
2022/04/26 13:21:04;;;;;;;5.05;2.25;;;;;;;20.46;30.94;98803.41;5059430;28;20104;-61
2022/04/26 13:23:32;;;;;;;3.65;2.47;;;;;;;20.38;30.84;98780.00;5061967;28;20037;-60
2022/04/26 13:25:58;;;;;;;4.38;2.20;;;;;;;20.62;30.51;98792.06;5060076;28;20065;-62
2022/04/26 13:28:24;;;;;;;8.55;2.58;;;;;;;20.74;30.14;98799.53;5036955;28;20056;-62
2022/04/26 13:30:50;;;;;;;4.53;2.30;;;;;;;20.57;30.74;98772.81;5061923;28;20480;-61
2022/04/26 13:33:15;;;;;;;7.35;2.55;;;;;;;20.75;30.37;98796.63;5046701;28;20089;-63
2022/04/26 13:35:41;;;;;;;2.17;1.98;;;;;;;20.79;30.13;98792.44;5066884;28;20040;-64
2022/04/26 13:38:11;;;;;;;5.30;2.17;;;;;;;20.67;30.46;98802.28;5057469;28;20056;-53
2022/04/26 13:40:37;;;;;;;4.00;2.15;;;;;;;20.41;30.49;98805.94;5052117;28;20064;-58
2022/04/26 13:43:04;;;;;;;2.80;2.10;;;;;;;20.27;30.78;98811.41;5051664;28;20040;-57
2022/04/26 13:45:31;;;;;;;2.25;1.95;;;;;;;20.08;30.95;98802.25;5051267;28;20035;-57
2022/04/26 13:47:56;;;;;;;4.93;1.88;;;;;;;19.94;31.40;98802.25;5051988;28;20037;-59
2022/04/26 13:50:22;;;;;;;3.03;1.90;;;;;;;19.86;31.44;98799.72;5051773;28;20040;-63
2022/04/26 13:52:47;;;;;;;6.43;2.20;;;;;;;19.67;31.28;98776.13;5032209;28;20116;-61
2022/04/26 13:55:17;;;;;;;5.60;2.22;;;;;;;19.69;31.67;98793.03;5051645;28;20238;-59
2022/04/26 13:57:43;;;;;;;8.82;2.10;;;;;;;19.64;32.01;98797.22;5060868;28;20091;-60
2022/04/26 14:00:11;;;;;;;5.22;2.05;;;;;;;19.56;31.88;98792.00;5059696;28;20032;-62
2022/04/26 14:02:37;;;;;;;3.42;1.90;;;;;;;19.44;31.57;98780.06;5059356;28;20051;-61
2022/04/26 14:05:04;;;;;;;5.40;2.10;;;;;;;19.55;31.45;98797.63;5061486;28;20170;-62
2022/04/26 14:07:30;;;;;;;2.25;2.05;;;;;;;19.54;31.61;98804.94;5027130;28;20392;-62
2022/04/26 14:09:55;;;;;;;2.28;1.92;;;;;;;19.51;31.76;98799.91;5058939;28;20025;-62
2022/04/26 14:12:21;;;;;;;5.78;2.25;;;;;;;19.51;31.84;98794.47;5060931;28;20040;-61
2022/04/26 14:22:58;;;;;;;5.85;1.70;;;;;;;19.67;30.83;98800.56;5061241;28;20083;-62
2022/04/26 14:25:24;;;;;;;1.85;1.45;;;;;;;19.71;30.86;98801.81;5042198;28;20056;-61
2022/04/26 14:27:49;;;;;;;2.50;1.98;;;;;;;19.58;30.98;98783.63;5059387;28;20086;-61
2022/04/26 14:30:16;;;;;;;1.85;1.70;;;;;;;19.60;31.19;98792.41;5059364;28;20154;-63
2022/04/26 14:32:43;;;;;;;2.50;1.80;;;;;;;19.42;31.85;98804.72;5059180;28;20060;-64
2022/04/26 14:35:10;;;;;;;2.08;1.88;;;;;;;19.18;32.43;98798.84;5059905;28;20460;-62
2022/04/26 14:37:35;;;;;;;4.32;1.98;;;;;;;19.00;32.52;98801.28;5042499;28;20025;-63
2022/04/26 14:40:03;;;;;;;4.97;2.13;;;;;;;18.90;32.57;98812.50;5058987;28;20028;-64
2022/04/26 14:42:32;;;;;;;5.85;2.08;;;;;;;18.80;32.80;98818.28;5058555;28;20025;-61
2022/04/26 14:44:57;;;;;;;5.35;1.95;;;;;;;18.67;33.49;98816.38;5058942;28;20106;-59
2022/04/26 14:47:26;;;;;;;3.13;2.00;;;;;;;18.57;33.31;98824.88;5041038;28;20040;-61
2022/04/26 14:49:59;;;;;;;3.58;1.83;;;;;;;18.47;33.33;98824.41;5058549;28;20211;-61
2022/04/26 14:52:25;;;;;;;3.70;1.60;;;;;;;18.20;33.93;98791.72;5050859;28;20048;-60
2022/04/26 14:54:51;;;;;;;3.88;1.60;;;;;;;18.29;33.92;98827.63;5050945;28;20411;-61
2022/04/26 14:57:21;;;;;;;5.78;2.10;;;;;;;18.06;33.89;98801.63;5050440;28;20036;-61
2022/04/26 14:59:47;;;;;;;4.30;2.20;;;;;;;18.11;34.47;98825.41;5051548;28;20116;-61
2022/04/26 15:02:17;;;;;;;5.50;2.17;;;;;;;18.12;34.35;98833.34;5036202;28;20035;-62
2022/04/26 15:04:47;;;;;;;7.50;4.28;;;;;;;18.05;34.75;98827.03;5070155;28;20476;-61
2022/04/26 15:07:14;;;;;;;5.15;2.05;;;;;;;17.96;34.72;98822.78;5070515;28;20036;-62
2022/04/26 15:09:42;;;;;;;5.47;2.38;;;;;;;17.78;35.05;98797.03;5070515;28;20024;-62
2022/04/26 15:17:37;;;;;;;6.95;2.17;;;;;;;17.90;35.37;98821.69;5050063;28;20044;-62
2022/04/26 15:20:03;;;;;;;6.72;2.45;;;;;;;17.87;35.36;98827.50;5049861;28;20404;-61
2022/04/26 15:22:29;;;;;;;3.88;2.75;;;;;;;17.76;35.83;98832.44;5049779;28;20615;-62
2022/04/26 15:24:55;;;;;;;6.57;2.47;;;;;;;17.68;36.41;98826.31;5049746;28;20067;-61
2022/04/26 15:27:21;;;;;;;6.75;2.47;;;;;;;17.52;36.47;98824.72;5049617;28;20099;-63
2022/04/26 15:29:47;;;;;;;6.68;2.53;;;;;;;17.43;37.12;98837.53;5049578;28;20174;-60
2022/04/26 15:32:13;;;;;;;5.90;2.30;;;;;;;17.35;36.31;98835.78;5049759;28;20039;-63
2022/04/26 15:34:39;;;;;;;5.70;2.40;;;;;;;17.19;36.50;98834.97;5049752;28;20059;-60
2022/04/26 15:37:06;;;;;;;3.25;2.10;;;;;;;17.11;36.95;98831.56;5049904;28;20409;-64
2022/04/26 15:39:32;;;;;;;2.63;2.00;;;;;;;17.07;37.03;98847.34;5050031;28;20044;-63
2022/04/26 15:41:59;;;;;;;4.05;1.85;;;;;;;16.95;37.37;98836.16;5049721;28;20120;-61
2022/04/26 15:44:25;;;;;;;4.20;2.05;;;;;;;16.88;37.51;98838.78;5050127;28;20136;-64
2022/04/26 15:46:52;;;;;;;5.80;1.90;;;;;;;16.85;37.71;98841.00;5065017;28;20032;-60